sensor_id;sensor_type;location;lat;lon;timestamp;P1;durP1;ratioP1;P2;durP2;ratioP2
39016;SDS011;24784;45.582;5.276;2022-11-20T06:36:10;10.52;;;5.70;;
39016;SDS011;24784;45.582;5.276;2022-11-20T06:38:43;11.85;;;5.45;;
39016;SDS011;24784;45.582;5.276;2022-11-20T06:43:54;9.95;;;5.32;;
39016;SDS011;24784;45.582;5.276;2022-11-20T06:46:26;10.90;;;5.43;;
39016;SDS011;24784;45.582;5.276;2022-11-20T06:49:12;11.57;;;5.68;;
39016;SDS011;24784;45.582;5.276;2022-11-20T06:51:37;13.63;;;6.22;;
39016;SDS011;24784;45.582;5.276;2022-11-20T06:54:09;12.98;;;5.75;;
39016;SDS011;24784;45.582;5.276;2022-11-20T06:56:38;12.40;;;5.80;;
39016;SDS011;24784;45.582;5.276;2022-11-20T06:59:16;11.80;;;6.20;;
39016;SDS011;24784;45.582;5.276;2022-11-20T07:04:23;12.82;;;7.70;;
39016;SDS011;24784;45.582;5.276;2022-11-20T07:07:01;19.88;;;7.53;;
39016;SDS011;24784;45.582;5.276;2022-11-20T07:09:26;10.82;;;6.65;;
39016;SDS011;24784;45.582;5.276;2022-11-20T07:12:04;12.57;;;6.13;;
39016;SDS011;24784;45.582;5.276;2022-11-20T07:14:39;10.52;;;6.40;;
39016;SDS011;24784;45.582;5.276;2022-11-20T07:17:08;14.93;;;6.57;;
39016;SDS011;24784;45.582;5.276;2022-11-20T07:19:45;12.30;;;6.25;;
39016;SDS011;24784;45.582;5.276;2022-11-20T07:22:11;10.95;;;5.20;;
39016;SDS011;24784;45.582;5.276;2022-11-20T07:24:38;9.07;;;5.28;;
39016;SDS011;24784;45.582;5.276;2022-11-20T07:27:16;12.95;;;6.15;;
39016;SDS011;24784;45.582;5.276;2022-11-20T07:29:58;11.10;;;6.15;;
39016;SDS011;24784;45.582;5.276;2022-11-20T07:32:36;10.57;;;5.55;;
39016;SDS011;24784;45.582;5.276;2022-11-20T07:35:02;10.13;;;5.47;;
39016;SDS011;24784;45.582;5.276;2022-11-20T07:37:33;8.45;;;5.03;;
39016;SDS011;24784;45.582;5.276;2022-11-20T07:40:02;12.38;;;5.93;;
39016;SDS011;24784;45.582;5.276;2022-11-20T07:42:37;10.30;;;5.75;;
39016;SDS011;24784;45.582;5.276;2022-11-20T07:47:53;10.45;;;5.47;;
39016;SDS011;24784;45.582;5.276;2022-11-20T07:50:31;10.75;;;5.93;;
39016;SDS011;24784;45.582;5.276;2022-11-20T07:53:04;9.93;;;5.85;;
39016;SDS011;24784;45.582;5.276;2022-11-20T07:55:36;14.90;;;6.93;;
39016;SDS011;24784;45.582;5.276;2022-11-20T07:58:04;38.30;;;20.73;;
39016;SDS011;24784;45.582;5.276;2022-11-20T08:00:36;25.83;;;13.55;;
39016;SDS011;24784;45.582;5.276;2022-11-20T08:03:08;14.15;;;9.20;;
39016;SDS011;24784;45.582;5.276;2022-11-20T08:05:34;12.05;;;7.43;;
39016;SDS011;24784;45.582;5.276;2022-11-20T08:08:03;9.63;;;6.30;;
39016;SDS011;24784;45.582;5.276;2022-11-20T08:10:35;9.45;;;6.30;;
39016;SDS011;24784;45.582;5.276;2022-11-20T08:20:44;41.13;;;21.08;;
39016;SDS011;24784;45.582;5.276;2022-11-20T08:23:16;28.90;;;14.60;;
39016;SDS011;24784;45.582;5.276;2022-11-20T08:25:49;24.48;;;13.63;;
39016;SDS011;24784;45.582;5.276;2022-11-20T09:03:28;14.02;;;6.78;;
39016;SDS011;24784;45.582;5.276;2022-11-20T09:06:00;13.73;;;6.88;;
39016;SDS011;24784;45.582;5.276;2022-11-20T09:08:28;10.98;;;7.38;;
39016;SDS011;24784;45.582;5.276;2022-11-20T09:10:57;16.33;;;7.38;;
39016;SDS011;24784;45.582;5.276;2022-11-20T09:13:23;17.05;;;8.35;;
39016;SDS011;24784;45.582;5.276;2022-11-20T09:16:05;12.07;;;7.50;;
39016;SDS011;24784;45.582;5.276;2022-11-20T09:18:32;17.50;;;7.38;;
39016;SDS011;24784;45.582;5.276;2022-11-20T09:21:02;13.27;;;6.32;;
39016;SDS011;24784;45.582;5.276;2022-11-20T09:23:34;13.00;;;7.10;;
39016;SDS011;24784;45.582;5.276;2022-11-20T09:26:07;10.68;;;6.50;;
39016;SDS011;24784;45.582;5.276;2022-11-20T09:28:35;10.18;;;6.97;;
39016;SDS011;24784;45.582;5.276;2022-11-20T09:31:04;14.95;;;7.00;;
39016;SDS011;24784;45.582;5.276;2022-11-20T09:33:34;9.98;;;6.38;;
39016;SDS011;24784;45.582;5.276;2022-11-20T09:36:00;11.95;;;6.28;;
39016;SDS011;24784;45.582;5.276;2022-11-20T09:38:27;12.05;;;6.40;;
39016;SDS011;24784;45.582;5.276;2022-11-20T09:43:21;10.20;;;6.28;;
39016;SDS011;24784;45.582;5.276;2022-11-20T09:51:23;12.68;;;6.53;;
39016;SDS011;24784;45.582;5.276;2022-11-20T09:56:40;8.93;;;5.82;;
39016;SDS011;24784;45.582;5.276;2022-11-20T10:02:48;10.07;;;4.68;;
39016;SDS011;24784;45.582;5.276;2022-11-20T10:10:50;8.90;;;4.72;;
39016;SDS011;24784;45.582;5.276;2022-11-20T10:13:43;6.88;;;3.80;;
39016;SDS011;24784;45.582;5.276;2022-11-20T10:30:23;8.43;;;2.95;;
39016;SDS011;24784;45.582;5.276;2022-11-20T10:35:49;7.43;;;2.80;;
39016;SDS011;24784;45.582;5.276;2022-11-20T10:38:24;8.68;;;3.25;;
39016;SDS011;24784;45.582;5.276;2022-11-20T10:40:59;7.78;;;2.72;;
39016;SDS011;24784;45.582;5.276;2022-11-20T10:43:49;5.60;;;2.88;;
39016;SDS011;24784;45.582;5.276;2022-11-20T10:46:24;9.68;;;2.90;;
39016;SDS011;24784;45.582;5.276;2022-11-20T10:48:55;9.60;;;3.45;;
39016;SDS011;24784;45.582;5.276;2022-11-20T10:51:33;8.70;;;3.90;;
39016;SDS011;24784;45.582;5.276;2022-11-20T10:56:42;10.27;;;3.75;;
39016;SDS011;24784;45.582;5.276;2022-11-20T11:01:56;5.80;;;3.20;;
39016;SDS011;24784;45.582;5.276;2022-11-20T11:04:40;8.63;;;3.00;;
39016;SDS011;24784;45.582;5.276;2022-11-20T11:07:12;6.25;;;2.75;;
39016;SDS011;24784;45.582;5.276;2022-11-20T11:09:47;6.25;;;2.30;;
39016;SDS011;24784;45.582;5.276;2022-11-20T11:12:15;5.43;;;2.25;;
39016;SDS011;24784;45.582;5.276;2022-11-20T11:14:45;12.57;;;2.60;;
39016;SDS011;24784;45.582;5.276;2022-11-20T11:17:32;4.97;;;2.95;;
39016;SDS011;24784;45.582;5.276;2022-11-20T11:25:24;8.95;;;3.20;;
39016;SDS011;24784;45.582;5.276;2022-11-20T11:27:50;6.57;;;3.03;;
39016;SDS011;24784;45.582;5.276;2022-11-20T11:30:20;9.48;;;3.38;;
39016;SDS011;24784;45.582;5.276;2022-11-20T11:33:02;9.57;;;3.47;;
39016;SDS011;24784;45.582;5.276;2022-11-20T11:35:38;9.48;;;4.57;;
39016;SDS011;24784;45.582;5.276;2022-11-20T11:41:12;9.13;;;4.30;;
39016;SDS011;24784;45.582;5.276;2022-11-20T11:44:23;7.88;;;4.40;;
39016;SDS011;24784;45.582;5.276;2022-11-20T11:47:24;8.70;;;3.58;;
39016;SDS011;24784;45.582;5.276;2022-11-20T11:58:52;10.52;;;4.70;;
39016;SDS011;24784;45.582;5.276;2022-11-20T12:10:08;7.68;;;4.10;;
39016;SDS011;24784;45.582;5.276;2022-11-20T12:13:34;5.40;;;4.03;;
39016;SDS011;24784;45.582;5.276;2022-11-20T12:16:22;8.55;;;6.55;;
39016;SDS011;24784;45.582;5.276;2022-11-20T12:19:09;3.97;;;2.88;;
39016;SDS011;24784;45.582;5.276;2022-11-20T12:42:57;6.43;;;2.63;;
39016;SDS011;24784;45.582;5.276;2022-11-20T12:52:54;5.05;;;2.75;;
39016;SDS011;24784;45.582;5.276;2022-11-20T12:58:32;6.10;;;2.97;;
39016;SDS011;24784;45.582;5.276;2022-11-20T13:08:02;4.35;;;2.08;;
39016;SDS011;24784;45.582;5.276;2022-11-20T13:14:04;2.95;;;1.90;;
39016;SDS011;24784;45.582;5.276;2022-11-20T13:19:37;5.35;;;2.53;;
39016;SDS011;24784;45.582;5.276;2022-11-20T13:22:03;3.72;;;1.70;;
39016;SDS011;24784;45.582;5.276;2022-11-20T13:24:30;3.75;;;2.40;;
39016;SDS011;24784;45.582;5.276;2022-11-20T13:29:45;5.60;;;2.50;;
39016;SDS011;24784;45.582;5.276;2022-11-20T13:32:29;4.82;;;2.08;;
39016;SDS011;24784;45.582;5.276;2022-11-20T13:35:05;4.95;;;2.53;;
39016;SDS011;24784;45.582;5.276;2022-11-20T13:37:35;4.63;;;1.95;;
39016;SDS011;24784;45.582;5.276;2022-11-20T13:42:39;4.72;;;2.40;;
39016;SDS011;24784;45.582;5.276;2022-11-20T13:45:26;4.07;;;2.40;;
39016;SDS011;24784;45.582;5.276;2022-11-20T13:47:55;3.58;;;1.98;;
39016;SDS011;24784;45.582;5.276;2022-11-20T13:55:38;5.82;;;1.98;;
39016;SDS011;24784;45.582;5.276;2022-11-20T14:01:09;6.10;;;2.55;;
39016;SDS011;24784;45.582;5.276;2022-11-20T14:03:37;3.75;;;2.00;;
39016;SDS011;24784;45.582;5.276;2022-11-20T14:06:11;4.28;;;2.30;;
39016;SDS011;24784;45.582;5.276;2022-11-20T14:09:09;5.38;;;2.53;;
39016;SDS011;24784;45.582;5.276;2022-11-20T14:15:02;3.28;;;2.30;;
39016;SDS011;24784;45.582;5.276;2022-11-20T14:17:34;4.70;;;3.17;;
39016;SDS011;24784;45.582;5.276;2022-11-20T14:20:05;6.95;;;2.70;;
39016;SDS011;24784;45.582;5.276;2022-11-20T14:22:37;4.78;;;3.05;;
39016;SDS011;24784;45.582;5.276;2022-11-20T14:25:18;6.40;;;3.25;;
39016;SDS011;24784;45.582;5.276;2022-11-20T14:27:55;7.28;;;2.40;;
39016;SDS011;24784;45.582;5.276;2022-11-20T14:30:26;6.28;;;2.20;;
39016;SDS011;24784;45.582;5.276;2022-11-20T14:32:57;8.25;;;3.30;;
39016;SDS011;24784;45.582;5.276;2022-11-20T14:35:33;4.75;;;2.80;;
39016;SDS011;24784;45.582;5.276;2022-11-20T14:38:01;4.95;;;2.65;;
39016;SDS011;24784;45.582;5.276;2022-11-20T14:40:31;9.57;;;2.90;;
39016;SDS011;24784;45.582;5.276;2022-11-20T14:43:02;5.63;;;3.03;;
39016;SDS011;24784;45.582;5.276;2022-11-20T14:45:48;8.57;;;3.55;;
39016;SDS011;24784;45.582;5.276;2022-11-20T14:48:39;60.17;;;6.40;;
39016;SDS011;24784;45.582;5.276;2022-11-20T14:51:05;7.63;;;3.85;;
39016;SDS011;24784;45.582;5.276;2022-11-20T14:53:30;7.35;;;4.60;;
39016;SDS011;24784;45.582;5.276;2022-11-20T14:55:58;23.95;;;6.63;;
39016;SDS011;24784;45.582;5.276;2022-11-20T14:58:27;10.82;;;5.28;;
39016;SDS011;24784;45.582;5.276;2022-11-20T15:00:58;14.32;;;4.32;;
39016;SDS011;24784;45.582;5.276;2022-11-20T15:03:33;7.78;;;4.13;;
39016;SDS011;24784;45.582;5.276;2022-11-20T15:05:59;4.97;;;3.47;;
39016;SDS011;24784;45.582;5.276;2022-11-20T15:08:25;9.00;;;3.83;;
39016;SDS011;24784;45.582;5.276;2022-11-20T15:10:52;8.50;;;4.60;;
39016;SDS011;24784;45.582;5.276;2022-11-20T15:13:34;7.18;;;4.18;;
39016;SDS011;24784;45.582;5.276;2022-11-20T15:16:04;8.38;;;4.15;;
39016;SDS011;24784;45.582;5.276;2022-11-20T15:18:40;6.72;;;3.53;;
39016;SDS011;24784;45.582;5.276;2022-11-20T15:21:11;9.20;;;5.97;;
39016;SDS011;24784;45.582;5.276;2022-11-20T15:23:41;11.50;;;5.70;;
39016;SDS011;24784;45.582;5.276;2022-11-20T15:26:08;8.93;;;5.63;;
39016;SDS011;24784;45.582;5.276;2022-11-20T15:28:45;10.45;;;6.38;;
39016;SDS011;24784;45.582;5.276;2022-11-20T15:31:16;9.63;;;6.07;;
39016;SDS011;24784;45.582;5.276;2022-11-20T15:33:50;13.15;;;6.82;;
39016;SDS011;24784;45.582;5.276;2022-11-20T15:36:21;8.95;;;6.18;;
39016;SDS011;24784;45.582;5.276;2022-11-20T15:38:49;11.25;;;6.30;;
39016;SDS011;24784;45.582;5.276;2022-11-20T15:41:15;16.83;;;9.07;;
39016;SDS011;24784;45.582;5.276;2022-11-20T15:43:41;15.00;;;8.85;;
39016;SDS011;24784;45.582;5.276;2022-11-20T15:46:15;18.85;;;9.63;;
39016;SDS011;24784;45.582;5.276;2022-11-20T15:48:45;15.35;;;8.88;;
39016;SDS011;24784;45.582;5.276;2022-11-20T15:53:54;10.10;;;6.55;;
39016;SDS011;24784;45.582;5.276;2022-11-20T15:56:20;10.07;;;6.57;;
39016;SDS011;24784;45.582;5.276;2022-11-20T15:58:46;10.57;;;5.55;;
39016;SDS011;24784;45.582;5.276;2022-11-20T16:01:13;11.27;;;6.22;;
39016;SDS011;24784;45.582;5.276;2022-11-20T16:03:41;11.18;;;6.30;;
39016;SDS011;24784;45.582;5.276;2022-11-20T16:06:07;14.82;;;5.93;;
39016;SDS011;24784;45.582;5.276;2022-11-20T16:08:33;15.38;;;6.55;;
39016;SDS011;24784;45.582;5.276;2022-11-20T16:10:59;14.77;;;7.03;;
39016;SDS011;24784;45.582;5.276;2022-11-20T16:13:27;11.80;;;5.78;;
39016;SDS011;24784;45.582;5.276;2022-11-20T16:19:17;11.82;;;5.32;;
39016;SDS011;24784;45.582;5.276;2022-11-20T16:21:50;13.65;;;6.32;;
39016;SDS011;24784;45.582;5.276;2022-11-20T16:24:27;13.85;;;6.88;;
39016;SDS011;24784;45.582;5.276;2022-11-20T16:27:01;16.23;;;6.57;;
39016;SDS011;24784;45.582;5.276;2022-11-20T16:29:42;12.90;;;6.25;;
39016;SDS011;24784;45.582;5.276;2022-11-20T16:32:20;13.23;;;6.40;;
39016;SDS011;24784;45.582;5.276;2022-11-20T16:35:13;11.30;;;5.63;;
39016;SDS011;24784;45.582;5.276;2022-11-20T16:37:53;10.80;;;5.05;;
39016;SDS011;24784;45.582;5.276;2022-11-20T16:42:54;14.48;;;5.32;;
39016;SDS011;24784;45.582;5.276;2022-11-20T18:02:56;5.10;;;3.78;;
39016;SDS011;24784;45.582;5.276;2022-11-20T18:05:26;5.85;;;3.72;;
39016;SDS011;24784;45.582;5.276;2022-11-20T18:07:52;8.18;;;4.05;;
39016;SDS011;24784;45.582;5.276;2022-11-20T18:10:18;8.02;;;4.22;;
39016;SDS011;24784;45.582;5.276;2022-11-20T18:12:44;10.63;;;4.40;;
39016;SDS011;24784;45.582;5.276;2022-11-20T18:15:31;11.77;;;5.65;;
39016;SDS011;24784;45.582;5.276;2022-11-20T18:18:05;10.48;;;6.35;;
39016;SDS011;24784;45.582;5.276;2022-11-20T18:20:42;9.63;;;6.30;;
39016;SDS011;24784;45.582;5.276;2022-11-20T18:23:40;9.20;;;5.13;;
39016;SDS011;24784;45.582;5.276;2022-11-20T18:26:16;6.82;;;4.32;;
39016;SDS011;24784;45.582;5.276;2022-11-20T18:31:27;4.68;;;3.47;;
39016;SDS011;24784;45.582;5.276;2022-11-20T18:37:00;7.00;;;3.80;;
39016;SDS011;24784;45.582;5.276;2022-11-20T18:42:19;11.50;;;6.47;;
39016;SDS011;24784;45.582;5.276;2022-11-20T18:45:23;10.90;;;4.47;;
39016;SDS011;24784;45.582;5.276;2022-11-20T18:47:59;8.35;;;4.15;;
39016;SDS011;24784;45.582;5.276;2022-11-20T18:54:05;7.57;;;3.00;;
39016;SDS011;24784;45.582;5.276;2022-11-20T18:56:39;7.53;;;2.70;;
39016;SDS011;24784;45.582;5.276;2022-11-20T18:59:25;4.53;;;2.75;;
39016;SDS011;24784;45.582;5.276;2022-11-20T19:13:27;7.78;;;4.95;;
39016;SDS011;24784;45.582;5.276;2022-11-20T19:16:03;6.38;;;3.88;;
39016;SDS011;24784;45.582;5.276;2022-11-20T19:18:40;7.80;;;4.35;;
39016;SDS011;24784;45.582;5.276;2022-11-20T19:21:14;8.20;;;5.43;;
39016;SDS011;24784;45.582;5.276;2022-11-20T19:23:50;6.38;;;4.05;;
39016;SDS011;24784;45.582;5.276;2022-11-20T19:37:10;5.07;;;2.80;;
39016;SDS011;24784;45.582;5.276;2022-11-20T19:53:44;4.93;;;2.88;;
39016;SDS011;24784;45.582;5.276;2022-11-20T19:56:10;4.35;;;2.88;;
39016;SDS011;24784;45.582;5.276;2022-11-20T19:58:36;3.17;;;2.30;;
39016;SDS011;24784;45.582;5.276;2022-11-20T20:01:06;3.65;;;2.33;;
